sensor_id;sensor_type;location;lat;lon;timestamp;temperature;humidity
24860;DHT22;12936;52.006;4.350;2022-12-18T00:02:30;-0.30;99.90
24860;DHT22;12936;52.006;4.350;2022-12-18T00:05:04;-0.30;99.90
24860;DHT22;12936;52.006;4.350;2022-12-18T00:07:53;-0.20;99.90
24860;DHT22;12936;52.006;4.350;2022-12-18T00:10:50;-0.20;99.90
24860;DHT22;12936;52.006;4.350;2022-12-18T00:13:25;-0.20;99.90
24860;DHT22;12936;52.006;4.350;2022-12-18T00:15:55;-0.20;99.90
24860;DHT22;12936;52.006;4.350;2022-12-18T00:18:24;-0.20;99.90
24860;DHT22;12936;52.006;4.350;2022-12-18T00:20:52;-0.30;99.90
24860;DHT22;12936;52.006;4.350;2022-12-18T00:23:21;-0.20;99.90
24860;DHT22;12936;52.006;4.350;2022-12-18T00:25:52;-0.20;99.90
24860;DHT22;12936;52.006;4.350;2022-12-18T00:28:26;-0.20;99.90
24860;DHT22;12936;52.006;4.350;2022-12-18T00:31:18;-0.20;99.90
24860;DHT22;12936;52.006;4.350;2022-12-18T00:34:13;-0.20;99.90
24860;DHT22;12936;52.006;4.350;2022-12-18T00:36:47;-0.30;99.90
24860;DHT22;12936;52.006;4.350;2022-12-18T00:39:18;-0.20;99.90
24860;DHT22;12936;52.006;4.350;2022-12-18T00:42:13;-0.30;99.90
24860;DHT22;12936;52.006;4.350;2022-12-18T00:44:59;-0.30;99.90
24860;DHT22;12936;52.006;4.350;2022-12-18T00:47:31;-0.20;99.90
24860;DHT22;12936;52.006;4.350;2022-12-18T00:50:01;-0.20;99.90
24860;DHT22;12936;52.006;4.350;2022-12-18T00:52:44;-0.30;99.90
24860;DHT22;12936;52.006;4.350;2022-12-18T00:55:19;-0.30;99.90
24860;DHT22;12936;52.006;4.350;2022-12-18T00:57:52;-0.30;99.90
24860;DHT22;12936;52.006;4.350;2022-12-18T01:00:21;-0.30;99.90
24860;DHT22;12936;52.006;4.350;2022-12-18T01:02:54;-0.30;99.90
24860;DHT22;12936;52.006;4.350;2022-12-18T01:05:23;-0.40;99.90
24860;DHT22;12936;52.006;4.350;2022-12-18T01:07:58;-0.30;99.90
24860;DHT22;12936;52.006;4.350;2022-12-18T01:10:27;-0.30;99.90
24860;DHT22;12936;52.006;4.350;2022-12-18T01:13:09;-0.40;99.90
24860;DHT22;12936;52.006;4.350;2022-12-18T01:15:39;-0.40;99.90
24860;DHT22;12936;52.006;4.350;2022-12-18T01:18:08;-0.40;99.90
24860;DHT22;12936;52.006;4.350;2022-12-18T01:20:38;-0.50;99.90
24860;DHT22;12936;52.006;4.350;2022-12-18T01:23:10;-0.50;99.90
24860;DHT22;12936;52.006;4.350;2022-12-18T01:25:40;-0.50;99.90
24860;DHT22;12936;52.006;4.350;2022-12-18T01:28:17;-0.50;99.90
24860;DHT22;12936;52.006;4.350;2022-12-18T01:30:46;-0.50;99.90
24860;DHT22;12936;52.006;4.350;2022-12-18T01:33:31;-0.50;99.90
24860;DHT22;12936;52.006;4.350;2022-12-18T01:36:00;-0.50;99.90
24860;DHT22;12936;52.006;4.350;2022-12-18T01:38:29;-0.50;99.90
24860;DHT22;12936;52.006;4.350;2022-12-18T01:41:20;-0.60;99.90
24860;DHT22;12936;52.006;4.350;2022-12-18T01:47:39;-0.60;99.90
24860;DHT22;12936;52.006;4.350;2022-12-18T01:50:12;-0.60;99.90
24860;DHT22;12936;52.006;4.350;2022-12-18T01:52:43;-0.60;99.90
24860;DHT22;12936;52.006;4.350;2022-12-18T01:55:43;-0.60;99.90
24860;DHT22;12936;52.006;4.350;2022-12-18T01:58:47;-0.60;99.90
24860;DHT22;12936;52.006;4.350;2022-12-18T02:01:25;-0.60;99.90
24860;DHT22;12936;52.006;4.350;2022-12-18T02:03:55;-0.60;99.90
24860;DHT22;12936;52.006;4.350;2022-12-18T02:06:29;-0.60;99.90
24860;DHT22;12936;52.006;4.350;2022-12-18T02:09:09;-0.60;99.90
24860;DHT22;12936;52.006;4.350;2022-12-18T02:11:49;-0.60;99.90
24860;DHT22;12936;52.006;4.350;2022-12-18T02:14:25;-0.60;99.90
24860;DHT22;12936;52.006;4.350;2022-12-18T02:17:03;-0.60;99.90
24860;DHT22;12936;52.006;4.350;2022-12-18T02:20:00;-0.60;99.90
24860;DHT22;12936;52.006;4.350;2022-12-18T02:22:37;-0.60;99.90
24860;DHT22;12936;52.006;4.350;2022-12-18T02:25:25;-0.60;99.90
24860;DHT22;12936;52.006;4.350;2022-12-18T02:28:13;-0.70;99.90
24860;DHT22;12936;52.006;4.350;2022-12-18T02:30:48;-0.60;99.90
24860;DHT22;12936;52.006;4.350;2022-12-18T02:33:40;-0.60;99.90
24860;DHT22;12936;52.006;4.350;2022-12-18T02:36:11;-0.70;99.90
24860;DHT22;12936;52.006;4.350;2022-12-18T02:38:43;-0.70;99.90
24860;DHT22;12936;52.006;4.350;2022-12-18T02:41:16;-0.70;99.90
24860;DHT22;12936;52.006;4.350;2022-12-18T02:43:55;-0.70;99.90
24860;DHT22;12936;52.006;4.350;2022-12-18T02:46:28;-0.70;99.90
24860;DHT22;12936;52.006;4.350;2022-12-18T02:49:08;-0.80;99.90
24860;DHT22;12936;52.006;4.350;2022-12-18T02:51:48;-0.80;99.90
24860;DHT22;12936;52.006;4.350;2022-12-18T02:54:30;-0.80;99.90
24860;DHT22;12936;52.006;4.350;2022-12-18T02:57:33;-0.80;99.90
24860;DHT22;12936;52.006;4.350;2022-12-18T03:00:07;-0.90;99.90
24860;DHT22;12936;52.006;4.350;2022-12-18T03:02:40;-0.90;99.90
24860;DHT22;12936;52.006;4.350;2022-12-18T03:05:34;-0.90;99.90
24860;DHT22;12936;52.006;4.350;2022-12-18T03:08:07;-1.00;99.90
24860;DHT22;12936;52.006;4.350;2022-12-18T03:10:43;-1.00;99.90
24860;DHT22;12936;52.006;4.350;2022-12-18T03:13:17;-1.00;99.90
24860;DHT22;12936;52.006;4.350;2022-12-18T03:15:59;-1.10;99.90
24860;DHT22;12936;52.006;4.350;2022-12-18T03:19:11;-1.10;99.90
24860;DHT22;12936;52.006;4.350;2022-12-18T03:21:47;-1.20;99.90
24860;DHT22;12936;52.006;4.350;2022-12-18T03:24:23;-1.20;99.90
24860;DHT22;12936;52.006;4.350;2022-12-18T03:26:57;-1.20;99.90
24860;DHT22;12936;52.006;4.350;2022-12-18T03:29:34;-1.20;99.90
24860;DHT22;12936;52.006;4.350;2022-12-18T03:32:26;-1.30;99.90
24860;DHT22;12936;52.006;4.350;2022-12-18T03:35:21;-1.20;99.90
24860;DHT22;12936;52.006;4.350;2022-12-18T03:38:05;-1.30;99.90
24860;DHT22;12936;52.006;4.350;2022-12-18T03:40:45;-1.30;99.90
24860;DHT22;12936;52.006;4.350;2022-12-18T03:43:31;-1.30;99.90
24860;DHT22;12936;52.006;4.350;2022-12-18T03:46:11;-1.30;99.90
24860;DHT22;12936;52.006;4.350;2022-12-18T03:48:46;-1.30;99.90
24860;DHT22;12936;52.006;4.350;2022-12-18T03:51:36;-1.30;99.90
24860;DHT22;12936;52.006;4.350;2022-12-18T03:54:06;-1.30;99.90
24860;DHT22;12936;52.006;4.350;2022-12-18T03:56:52;-1.40;99.90
24860;DHT22;12936;52.006;4.350;2022-12-18T03:59:27;-1.40;99.90
24860;DHT22;12936;52.006;4.350;2022-12-18T04:01:57;-1.40;99.90
24860;DHT22;12936;52.006;4.350;2022-12-18T04:04:31;-1.40;99.90
24860;DHT22;12936;52.006;4.350;2022-12-18T04:07:00;-1.40;99.90
24860;DHT22;12936;52.006;4.350;2022-12-18T04:09:33;-1.40;99.90
24860;DHT22;12936;52.006;4.350;2022-12-18T04:12:24;-1.40;99.90
24860;DHT22;12936;52.006;4.350;2022-12-18T04:15:09;-1.50;99.90
24860;DHT22;12936;52.006;4.350;2022-12-18T04:17:49;-1.50;99.90
24860;DHT22;12936;52.006;4.350;2022-12-18T04:20:47;-1.50;99.90
24860;DHT22;12936;52.006;4.350;2022-12-18T04:23:15;-1.50;99.90
24860;DHT22;12936;52.006;4.350;2022-12-18T04:25:47;-1.50;99.90
24860;DHT22;12936;52.006;4.350;2022-12-18T04:28:18;-1.60;99.90
24860;DHT22;12936;52.006;4.350;2022-12-18T04:30:47;-1.60;99.90
24860;DHT22;12936;52.006;4.350;2022-12-18T04:33:17;-1.60;99.90
24860;DHT22;12936;52.006;4.350;2022-12-18T04:35:50;-1.60;99.90
24860;DHT22;12936;52.006;4.350;2022-12-18T04:38:22;-1.60;99.90
24860;DHT22;12936;52.006;4.350;2022-12-18T04:40:51;-1.60;99.90
24860;DHT22;12936;52.006;4.350;2022-12-18T04:43:27;-1.60;99.90
24860;DHT22;12936;52.006;4.350;2022-12-18T04:46:09;-1.60;99.90
24860;DHT22;12936;52.006;4.350;2022-12-18T04:48:41;-1.60;99.90
24860;DHT22;12936;52.006;4.350;2022-12-18T04:51:14;-1.70;99.90
24860;DHT22;12936;52.006;4.350;2022-12-18T04:53:52;-1.60;99.90
24860;DHT22;12936;52.006;4.350;2022-12-18T04:56:45;-1.60;99.90
24860;DHT22;12936;52.006;4.350;2022-12-18T04:59:16;-1.70;99.90
24860;DHT22;12936;52.006;4.350;2022-12-18T05:01:45;-1.60;99.90
24860;DHT22;12936;52.006;4.350;2022-12-18T05:04:18;-1.70;99.90
24860;DHT22;12936;52.006;4.350;2022-12-18T05:06:55;-1.70;99.90
24860;DHT22;12936;52.006;4.350;2022-12-18T05:09:24;-1.70;99.90
24860;DHT22;12936;52.006;4.350;2022-12-18T05:11:53;-1.70;99.90
24860;DHT22;12936;52.006;4.350;2022-12-18T05:14:24;-1.70;99.90
24860;DHT22;12936;52.006;4.350;2022-12-18T05:16:56;-1.70;99.90
24860;DHT22;12936;52.006;4.350;2022-12-18T05:19:27;-1.70;99.90
24860;DHT22;12936;52.006;4.350;2022-12-18T05:22:09;-1.70;99.90
24860;DHT22;12936;52.006;4.350;2022-12-18T05:24:40;-1.70;99.90
24860;DHT22;12936;52.006;4.350;2022-12-18T05:27:12;-1.70;99.90
24860;DHT22;12936;52.006;4.350;2022-12-18T05:29:41;-1.80;99.90
24860;DHT22;12936;52.006;4.350;2022-12-18T05:32:10;-1.80;99.90
24860;DHT22;12936;52.006;4.350;2022-12-18T05:34:45;-1.80;99.90
24860;DHT22;12936;52.006;4.350;2022-12-18T05:37:18;-1.80;99.90
24860;DHT22;12936;52.006;4.350;2022-12-18T05:40:11;-1.80;99.90
24860;DHT22;12936;52.006;4.350;2022-12-18T05:42:42;-1.80;99.90
24860;DHT22;12936;52.006;4.350;2022-12-18T05:45:11;-1.80;99.90
24860;DHT22;12936;52.006;4.350;2022-12-18T05:47:43;-1.80;99.90
24860;DHT22;12936;52.006;4.350;2022-12-18T05:50:15;-1.90;99.90
24860;DHT22;12936;52.006;4.350;2022-12-18T05:52:47;-1.90;99.90
24860;DHT22;12936;52.006;4.350;2022-12-18T05:55:16;-1.80;99.90
24860;DHT22;12936;52.006;4.350;2022-12-18T05:57:55;-1.90;99.90
24860;DHT22;12936;52.006;4.350;2022-12-18T06:00:24;-1.90;99.90
24860;DHT22;12936;52.006;4.350;2022-12-18T06:02:56;-1.90;99.90
24860;DHT22;12936;52.006;4.350;2022-12-18T06:05:26;-1.90;99.90
24860;DHT22;12936;52.006;4.350;2022-12-18T06:07:55;-1.90;99.90
24860;DHT22;12936;52.006;4.350;2022-12-18T06:10:23;-1.90;99.90
24860;DHT22;12936;52.006;4.350;2022-12-18T06:12:51;-1.90;99.90
24860;DHT22;12936;52.006;4.350;2022-12-18T06:15:19;-1.90;99.90
24860;DHT22;12936;52.006;4.350;2022-12-18T06:17:47;-2.00;99.90
24860;DHT22;12936;52.006;4.350;2022-12-18T06:20:15;-2.00;99.90
24860;DHT22;12936;52.006;4.350;2022-12-18T06:22:43;-2.00;99.90
24860;DHT22;12936;52.006;4.350;2022-12-18T06:25:13;-2.00;99.90
24860;DHT22;12936;52.006;4.350;2022-12-18T06:27:41;-2.00;99.90
24860;DHT22;12936;52.006;4.350;2022-12-18T06:30:11;-2.00;99.90
24860;DHT22;12936;52.006;4.350;2022-12-18T06:32:39;-2.00;99.90
24860;DHT22;12936;52.006;4.350;2022-12-18T06:35:08;-2.00;99.90
24860;DHT22;12936;52.006;4.350;2022-12-18T06:37:36;-2.00;99.90
24860;DHT22;12936;52.006;4.350;2022-12-18T06:40:05;-2.10;99.90
24860;DHT22;12936;52.006;4.350;2022-12-18T06:42:35;-2.10;99.90
24860;DHT22;12936;52.006;4.350;2022-12-18T06:45:03;-2.10;99.90
24860;DHT22;12936;52.006;4.350;2022-12-18T06:47:32;-2.10;99.90
24860;DHT22;12936;52.006;4.350;2022-12-18T06:50:00;-2.10;99.90
24860;DHT22;12936;52.006;4.350;2022-12-18T06:52:28;-2.10;99.90
24860;DHT22;12936;52.006;4.350;2022-12-18T06:54:56;-2.10;99.90
24860;DHT22;12936;52.006;4.350;2022-12-18T06:57:24;-2.10;99.90
24860;DHT22;12936;52.006;4.350;2022-12-18T06:59:53;-2.10;99.90
24860;DHT22;12936;52.006;4.350;2022-12-18T07:02:21;-2.20;99.90
24860;DHT22;12936;52.006;4.350;2022-12-18T07:04:49;-2.10;99.90
24860;DHT22;12936;52.006;4.350;2022-12-18T07:07:18;-2.10;99.90
24860;DHT22;12936;52.006;4.350;2022-12-18T07:09:46;-2.20;99.90
24860;DHT22;12936;52.006;4.350;2022-12-18T07:12:14;-2.10;99.90
24860;DHT22;12936;52.006;4.350;2022-12-18T07:14:42;-2.10;99.90
24860;DHT22;12936;52.006;4.350;2022-12-18T07:17:11;-2.10;99.90
24860;DHT22;12936;52.006;4.350;2022-12-18T07:19:40;-2.20;99.90
24860;DHT22;12936;52.006;4.350;2022-12-18T07:22:08;-2.20;99.90
24860;DHT22;12936;52.006;4.350;2022-12-18T07:24:36;-2.20;99.90
24860;DHT22;12936;52.006;4.350;2022-12-18T07:27:04;-2.20;99.90
24860;DHT22;12936;52.006;4.350;2022-12-18T07:29:33;-2.20;99.90
24860;DHT22;12936;52.006;4.350;2022-12-18T07:32:02;-2.20;99.90
24860;DHT22;12936;52.006;4.350;2022-12-18T07:34:31;-2.20;99.90
24860;DHT22;12936;52.006;4.350;2022-12-18T07:36:59;-2.20;99.90
24860;DHT22;12936;52.006;4.350;2022-12-18T07:39:27;-2.30;99.90
24860;DHT22;12936;52.006;4.350;2022-12-18T07:41:55;-2.30;99.90
24860;DHT22;12936;52.006;4.350;2022-12-18T07:44:41;-2.20;99.90
24860;DHT22;12936;52.006;4.350;2022-12-18T07:47:09;-2.30;99.90
24860;DHT22;12936;52.006;4.350;2022-12-18T07:49:39;-2.20;99.90
24860;DHT22;12936;52.006;4.350;2022-12-18T07:52:07;-2.30;99.90
24860;DHT22;12936;52.006;4.350;2022-12-18T07:54:36;-2.20;99.90
24860;DHT22;12936;52.006;4.350;2022-12-18T07:57:04;-2.20;99.90
24860;DHT22;12936;52.006;4.350;2022-12-18T07:59:52;-2.30;99.90
24860;DHT22;12936;52.006;4.350;2022-12-18T08:02:20;-2.30;99.90
24860;DHT22;12936;52.006;4.350;2022-12-18T08:04:50;-2.30;99.90
24860;DHT22;12936;52.006;4.350;2022-12-18T08:07:18;-2.30;99.90
24860;DHT22;12936;52.006;4.350;2022-12-18T08:09:46;-2.30;99.90
24860;DHT22;12936;52.006;4.350;2022-12-18T08:12:14;-2.30;99.90
24860;DHT22;12936;52.006;4.350;2022-12-18T08:14:42;-2.30;99.90
24860;DHT22;12936;52.006;4.350;2022-12-18T08:17:10;-2.30;99.90
24860;DHT22;12936;52.006;4.350;2022-12-18T08:19:38;-2.30;99.90
24860;DHT22;12936;52.006;4.350;2022-12-18T08:22:07;-2.20;99.90
24860;DHT22;12936;52.006;4.350;2022-12-18T08:24:35;-2.30;99.90
24860;DHT22;12936;52.006;4.350;2022-12-18T08:27:03;-2.20;99.90
24860;DHT22;12936;52.006;4.350;2022-12-18T08:29:51;-2.20;99.90
24860;DHT22;12936;52.006;4.350;2022-12-18T08:32:19;-2.20;99.90
24860;DHT22;12936;52.006;4.350;2022-12-18T08:34:48;-2.20;99.90
24860;DHT22;12936;52.006;4.350;2022-12-18T08:37:18;-2.20;99.90
24860;DHT22;12936;52.006;4.350;2022-12-18T08:39:46;-2.20;99.90
24860;DHT22;12936;52.006;4.350;2022-12-18T08:42:14;-2.20;99.90
24860;DHT22;12936;52.006;4.350;2022-12-18T08:45:00;-2.10;99.90
24860;DHT22;12936;52.006;4.350;2022-12-18T08:47:28;-2.10;99.90
24860;DHT22;12936;52.006;4.350;2022-12-18T08:49:56;-2.10;99.90
24860;DHT22;12936;52.006;4.350;2022-12-18T08:52:26;-2.10;99.90
24860;DHT22;12936;52.006;4.350;2022-12-18T08:54:54;-2.10;99.90
24860;DHT22;12936;52.006;4.350;2022-12-18T08:57:22;-2.10;99.90
24860;DHT22;12936;52.006;4.350;2022-12-18T08:59:50;-2.00;99.90
24860;DHT22;12936;52.006;4.350;2022-12-18T09:02:19;-2.00;99.90
24860;DHT22;12936;52.006;4.350;2022-12-18T09:04:47;-2.00;99.90
24860;DHT22;12936;52.006;4.350;2022-12-18T09:07:27;-1.90;99.90
24860;DHT22;12936;52.006;4.350;2022-12-18T09:09:55;-1.90;99.90
24860;DHT22;12936;52.006;4.350;2022-12-18T09:12:23;-1.90;99.90
24860;DHT22;12936;52.006;4.350;2022-12-18T09:14:56;-1.80;99.90
24860;DHT22;12936;52.006;4.350;2022-12-18T09:17:24;-1.80;99.90
24860;DHT22;12936;52.006;4.350;2022-12-18T09:19:52;-1.80;99.90
24860;DHT22;12936;52.006;4.350;2022-12-18T09:22:21;-1.80;99.90
24860;DHT22;12936;52.006;4.350;2022-12-18T09:24:50;-1.70;99.90
24860;DHT22;12936;52.006;4.350;2022-12-18T09:27:18;-1.70;99.90
24860;DHT22;12936;52.006;4.350;2022-12-18T09:29:46;-1.60;99.90
24860;DHT22;12936;52.006;4.350;2022-12-18T09:32:20;-1.60;99.90
24860;DHT22;12936;52.006;4.350;2022-12-18T09:34:49;-1.60;99.90
24860;DHT22;12936;52.006;4.350;2022-12-18T09:37:17;-1.50;99.90
24860;DHT22;12936;52.006;4.350;2022-12-18T09:39:45;-1.50;99.90
24860;DHT22;12936;52.006;4.350;2022-12-18T09:42:20;-1.50;99.90
24860;DHT22;12936;52.006;4.350;2022-12-18T09:44:50;-1.40;99.90
24860;DHT22;12936;52.006;4.350;2022-12-18T09:47:23;-1.40;99.90
24860;DHT22;12936;52.006;4.350;2022-12-18T09:49:55;-1.30;99.90
24860;DHT22;12936;52.006;4.350;2022-12-18T09:52:27;-1.30;99.90
24860;DHT22;12936;52.006;4.350;2022-12-18T09:55:00;-1.20;99.90
24860;DHT22;12936;52.006;4.350;2022-12-18T09:57:33;-1.20;99.90
24860;DHT22;12936;52.006;4.350;2022-12-18T10:00:15;-1.20;99.90
24860;DHT22;12936;52.006;4.350;2022-12-18T10:02:44;-1.10;99.90
24860;DHT22;12936;52.006;4.350;2022-12-18T10:05:15;-1.10;99.90
24860;DHT22;12936;52.006;4.350;2022-12-18T10:07:53;-1.00;99.90
24860;DHT22;12936;52.006;4.350;2022-12-18T10:10:30;-1.10;99.90
24860;DHT22;12936;52.006;4.350;2022-12-18T10:13:07;-1.00;99.90
24860;DHT22;12936;52.006;4.350;2022-12-18T10:15:49;-1.00;99.90
24860;DHT22;12936;52.006;4.350;2022-12-18T10:18:26;-0.90;99.90
24860;DHT22;12936;52.006;4.350;2022-12-18T10:21:01;-0.90;99.90
24860;DHT22;12936;52.006;4.350;2022-12-18T10:23:36;-0.90;99.90
24860;DHT22;12936;52.006;4.350;2022-12-18T10:26:13;-0.80;99.90
24860;DHT22;12936;52.006;4.350;2022-12-18T10:28:44;-0.80;99.90
24860;DHT22;12936;52.006;4.350;2022-12-18T10:31:15;-0.80;99.90
24860;DHT22;12936;52.006;4.350;2022-12-18T10:33:44;-0.80;99.90
24860;DHT22;12936;52.006;4.350;2022-12-18T10:36:12;-0.70;99.90
24860;DHT22;12936;52.006;4.350;2022-12-18T10:38:40;-0.70;99.90
24860;DHT22;12936;52.006;4.350;2022-12-18T10:41:24;-0.70;99.90
24860;DHT22;12936;52.006;4.350;2022-12-18T10:44:21;-0.60;99.90
24860;DHT22;12936;52.006;4.350;2022-12-18T10:46:51;-0.50;99.90
24860;DHT22;12936;52.006;4.350;2022-12-18T10:49:25;-0.50;99.90
24860;DHT22;12936;52.006;4.350;2022-12-18T10:52:05;-0.50;99.90
24860;DHT22;12936;52.006;4.350;2022-12-18T10:54:36;-0.50;99.90
24860;DHT22;12936;52.006;4.350;2022-12-18T10:57:29;-0.40;99.90
24860;DHT22;12936;52.006;4.350;2022-12-18T11:00:18;-0.40;99.90
24860;DHT22;12936;52.006;4.350;2022-12-18T11:02:48;-0.30;99.90
24860;DHT22;12936;52.006;4.350;2022-12-18T11:05:25;-0.30;99.90
24860;DHT22;12936;52.006;4.350;2022-12-18T11:07:54;-0.30;99.90
24860;DHT22;12936;52.006;4.350;2022-12-18T11:10:26;-0.30;99.90
24860;DHT22;12936;52.006;4.350;2022-12-18T11:12:56;-0.30;99.90
24860;DHT22;12936;52.006;4.350;2022-12-18T11:15:40;-0.20;99.90
24860;DHT22;12936;52.006;4.350;2022-12-18T11:18:17;-0.20;99.90
24860;DHT22;12936;52.006;4.350;2022-12-18T11:20:52;-0.10;99.90
24860;DHT22;12936;52.006;4.350;2022-12-18T11:23:25;-0.10;99.90
24860;DHT22;12936;52.006;4.350;2022-12-18T11:25:56;-0.10;99.90
24860;DHT22;12936;52.006;4.350;2022-12-18T11:28:36;0.00;99.90
24860;DHT22;12936;52.006;4.350;2022-12-18T11:31:25;0.00;99.90
24860;DHT22;12936;52.006;4.350;2022-12-18T11:34:08;0.00;99.90
24860;DHT22;12936;52.006;4.350;2022-12-18T11:36:55;0.00;99.90
24860;DHT22;12936;52.006;4.350;2022-12-18T11:39:31;0.10;99.90
24860;DHT22;12936;52.006;4.350;2022-12-18T11:42:05;0.10;99.90
24860;DHT22;12936;52.006;4.350;2022-12-18T11:44:43;0.00;99.90
24860;DHT22;12936;52.006;4.350;2022-12-18T11:47:29;0.10;99.90
24860;DHT22;12936;52.006;4.350;2022-12-18T11:50:01;0.10;99.90
24860;DHT22;12936;52.006;4.350;2022-12-18T11:52:36;0.20;99.90
24860;DHT22;12936;52.006;4.350;2022-12-18T11:55:11;0.10;99.90
24860;DHT22;12936;52.006;4.350;2022-12-18T11:57:49;0.20;99.90
24860;DHT22;12936;52.006;4.350;2022-12-18T12:00:22;0.20;99.90
24860;DHT22;12936;52.006;4.350;2022-12-18T12:03:17;0.20;99.90
24860;DHT22;12936;52.006;4.350;2022-12-18T12:06:00;0.20;99.90
24860;DHT22;12936;52.006;4.350;2022-12-18T12:08:42;0.20;99.90
24860;DHT22;12936;52.006;4.350;2022-12-18T12:11:17;0.20;99.90
24860;DHT22;12936;52.006;4.350;2022-12-18T12:13:55;0.20;99.90
24860;DHT22;12936;52.006;4.350;2022-12-18T12:16:29;0.30;99.90
24860;DHT22;12936;52.006;4.350;2022-12-18T12:19:15;0.30;99.90
24860;DHT22;12936;52.006;4.350;2022-12-18T12:21:49;0.30;99.90
24860;DHT22;12936;52.006;4.350;2022-12-18T12:24:29;0.30;99.90
24860;DHT22;12936;52.006;4.350;2022-12-18T12:27:04;0.30;99.90
24860;DHT22;12936;52.006;4.350;2022-12-18T12:29:46;0.30;99.90
24860;DHT22;12936;52.006;4.350;2022-12-18T12:32:25;0.30;99.90
24860;DHT22;12936;52.006;4.350;2022-12-18T12:35:06;0.30;99.90
24860;DHT22;12936;52.006;4.350;2022-12-18T12:37:44;0.30;99.90
24860;DHT22;12936;52.006;4.350;2022-12-18T12:40:18;0.30;99.90
24860;DHT22;12936;52.006;4.350;2022-12-18T12:43:19;0.40;99.90
24860;DHT22;12936;52.006;4.350;2022-12-18T12:45:52;0.40;99.90
24860;DHT22;12936;52.006;4.350;2022-12-18T12:48:34;0.40;99.90
24860;DHT22;12936;52.006;4.350;2022-12-18T12:51:10;0.40;99.90
24860;DHT22;12936;52.006;4.350;2022-12-18T12:53:41;0.40;99.90
24860;DHT22;12936;52.006;4.350;2022-12-18T12:56:12;0.40;99.90
24860;DHT22;12936;52.006;4.350;2022-12-18T12:58:47;0.40;99.90
24860;DHT22;12936;52.006;4.350;2022-12-18T13:01:29;0.50;99.90
24860;DHT22;12936;52.006;4.350;2022-12-18T13:04:29;0.50;99.90
24860;DHT22;12936;52.006;4.350;2022-12-18T13:07:04;0.50;99.90
24860;DHT22;12936;52.006;4.350;2022-12-18T13:09:34;0.50;99.90
24860;DHT22;12936;52.006;4.350;2022-12-18T13:12:23;0.50;99.90
24860;DHT22;12936;52.006;4.350;2022-12-18T13:15:13;0.60;99.90
24860;DHT22;12936;52.006;4.350;2022-12-18T13:17:48;0.60;99.90
24860;DHT22;12936;52.006;4.350;2022-12-18T13:20:17;0.60;99.90
24860;DHT22;12936;52.006;4.350;2022-12-18T13:22:48;0.60;99.90
24860;DHT22;12936;52.006;4.350;2022-12-18T13:25:37;0.60;99.90
24860;DHT22;12936;52.006;4.350;2022-12-18T13:28:09;0.70;99.90
24860;DHT22;12936;52.006;4.350;2022-12-18T13:30:49;0.60;99.90
24860;DHT22;12936;52.006;4.350;2022-12-18T13:33:41;0.70;99.90
24860;DHT22;12936;52.006;4.350;2022-12-18T13:36:31;0.70;99.90
24860;DHT22;12936;52.006;4.350;2022-12-18T13:39:21;0.70;99.90
24860;DHT22;12936;52.006;4.350;2022-12-18T13:45:43;0.70;99.90
24860;DHT22;12936;52.006;4.350;2022-12-18T13:48:22;0.70;99.90
24860;DHT22;12936;52.006;4.350;2022-12-18T13:50:55;0.70;99.90
24860;DHT22;12936;52.006;4.350;2022-12-18T13:53:27;0.70;99.90
24860;DHT22;12936;52.006;4.350;2022-12-18T13:55:57;0.70;99.90
24860;DHT22;12936;52.006;4.350;2022-12-18T13:58:26;0.70;99.90
24860;DHT22;12936;52.006;4.350;2022-12-18T14:00:54;0.70;99.90
24860;DHT22;12936;52.006;4.350;2022-12-18T14:03:24;0.70;99.90
24860;DHT22;12936;52.006;4.350;2022-12-18T14:05:56;0.70;99.90
24860;DHT22;12936;52.006;4.350;2022-12-18T14:08:32;0.70;99.90
24860;DHT22;12936;52.006;4.350;2022-12-18T14:11:04;0.70;99.90
24860;DHT22;12936;52.006;4.350;2022-12-18T14:13:36;0.80;99.90
24860;DHT22;12936;52.006;4.350;2022-12-18T14:16:11;0.70;99.90
24860;DHT22;12936;52.006;4.350;2022-12-18T14:18:45;0.70;99.90
24860;DHT22;12936;52.006;4.350;2022-12-18T14:21:20;0.70;99.90
24860;DHT22;12936;52.006;4.350;2022-12-18T14:23:48;0.70;99.90
24860;DHT22;12936;52.006;4.350;2022-12-18T14:26:23;0.80;99.90
24860;DHT22;12936;52.006;4.350;2022-12-18T14:28:53;0.70;99.90
24860;DHT22;12936;52.006;4.350;2022-12-18T14:31:24;0.80;99.90
24860;DHT22;12936;52.006;4.350;2022-12-18T14:33:52;0.80;99.90
24860;DHT22;12936;52.006;4.350;2022-12-18T14:36:22;0.80;99.90
24860;DHT22;12936;52.006;4.350;2022-12-18T14:38:51;0.70;99.90
24860;DHT22;12936;52.006;4.350;2022-12-18T14:41:23;0.80;99.90
24860;DHT22;12936;52.006;4.350;2022-12-18T14:43:53;0.70;99.90
24860;DHT22;12936;52.006;4.350;2022-12-18T14:46:29;0.70;99.90
24860;DHT22;12936;52.006;4.350;2022-12-18T14:49:01;0.70;99.90
24860;DHT22;12936;52.006;4.350;2022-12-18T14:51:31;0.80;99.90
24860;DHT22;12936;52.006;4.350;2022-12-18T14:54:02;0.70;99.90
24860;DHT22;12936;52.006;4.350;2022-12-18T14:56:37;0.80;99.90
24860;DHT22;12936;52.006;4.350;2022-12-18T14:59:14;0.80;99.90
24860;DHT22;12936;52.006;4.350;2022-12-18T15:02:01;0.80;99.90
24860;DHT22;12936;52.006;4.350;2022-12-18T15:04:33;0.80;99.90
24860;DHT22;12936;52.006;4.350;2022-12-18T15:07:13;0.70;99.90
24860;DHT22;12936;52.006;4.350;2022-12-18T15:09:43;0.80;99.90
24860;DHT22;12936;52.006;4.350;2022-12-18T15:12:26;0.80;99.90
24860;DHT22;12936;52.006;4.350;2022-12-18T15:14:57;0.80;99.90
24860;DHT22;12936;52.006;4.350;2022-12-18T15:17:26;0.80;99.90
24860;DHT22;12936;52.006;4.350;2022-12-18T15:19:59;0.80;99.90
24860;DHT22;12936;52.006;4.350;2022-12-18T15:22:32;0.80;99.90
24860;DHT22;12936;52.006;4.350;2022-12-18T15:25:03;0.90;99.90
24860;DHT22;12936;52.006;4.350;2022-12-18T15:27:34;0.80;99.90
24860;DHT22;12936;52.006;4.350;2022-12-18T15:30:19;0.90;99.90
24860;DHT22;12936;52.006;4.350;2022-12-18T15:32:48;0.80;99.90
24860;DHT22;12936;52.006;4.350;2022-12-18T15:35:49;0.80;99.90
24860;DHT22;12936;52.006;4.350;2022-12-18T15:38:22;0.90;99.90
24860;DHT22;12936;52.006;4.350;2022-12-18T15:40:50;0.90;99.90
24860;DHT22;12936;52.006;4.350;2022-12-18T15:43:20;0.90;99.90
24860;DHT22;12936;52.006;4.350;2022-12-18T15:46:06;0.90;99.90
24860;DHT22;12936;52.006;4.350;2022-12-18T15:48:39;0.90;99.90
24860;DHT22;12936;52.006;4.350;2022-12-18T15:51:13;0.90;99.90
24860;DHT22;12936;52.006;4.350;2022-12-18T15:53:43;0.90;99.90
24860;DHT22;12936;52.006;4.350;2022-12-18T15:56:12;1.00;99.90
24860;DHT22;12936;52.006;4.350;2022-12-18T15:59:01;0.90;99.90
24860;DHT22;12936;52.006;4.350;2022-12-18T16:01:30;0.90;99.90
24860;DHT22;12936;52.006;4.350;2022-12-18T16:04:04;0.90;99.90
24860;DHT22;12936;52.006;4.350;2022-12-18T16:06:32;0.90;99.90
24860;DHT22;12936;52.006;4.350;2022-12-18T16:09:20;1.00;99.90
24860;DHT22;12936;52.006;4.350;2022-12-18T16:11:52;1.00;99.90
24860;DHT22;12936;52.006;4.350;2022-12-18T16:14:23;1.00;99.90
24860;DHT22;12936;52.006;4.350;2022-12-18T16:16:54;0.90;99.90
24860;DHT22;12936;52.006;4.350;2022-12-18T16:19:24;1.00;99.90
24860;DHT22;12936;52.006;4.350;2022-12-18T16:21:54;1.00;99.90
24860;DHT22;12936;52.006;4.350;2022-12-18T16:24:25;1.00;99.90
24860;DHT22;12936;52.006;4.350;2022-12-18T16:26:54;1.00;99.90
24860;DHT22;12936;52.006;4.350;2022-12-18T16:29:23;1.10;99.90
24860;DHT22;12936;52.006;4.350;2022-12-18T16:31:54;1.00;99.90